FW8396 Weather Reports


Display with metric or nautical units.
time (UTC)temp
F
wind
direction
speed
MPH
gust
MPH
rain 1hr
in
rain 24hr
in
rain mn
in
humidity
%
barometer
mb
20220126050013 53 32 1.0 8.0 0.00 0.00 0.00 79 1023.9
20220126044518 53 40 1.0 5.0 0.00 0.00 0.00 79 1024.2
20220126043037 54 0 1.0 10.0 0.00 0.00 0.00 78 1024.2
20220126041525 53 87 2.0 9.0 0.00 0.00 0.00 78 1023.6
20220126040024 54 55 1.0 9.0 0.00 0.00 0.00 79 1023.7
20220126034514 54 56 3.0 9.0 0.00 0.00 0.00 79 1023.3
20220126033045 54 0 0.0 5.0 0.00 0.00 0.00 79 1023.1
20220126031533 54 65 1.0 8.0 0.00 0.00 0.00 79 1023.1
20220126030037 54 49 2.0 7.0 0.00 0.00 0.00 79 1022.4
20220126024510 54 96 2.0 10.0 0.00 0.00 0.00 80 1022.0
20220126023039 54 30 4.0 12.0 0.00 0.00 0.00 80 1021.4
20220126021523 54 55 2.0 10.0 0.00 0.00 0.00 81 1021.7
20220126020028 54 301 3.0 9.0 0.00 0.00 0.00 81 1021.7
20220126014514 54 53 2.0 7.0 0.00 0.00 0.00 81 1021.4
20220126013019 55 67 3.0 10.0 0.00 0.00 0.00 81 1021.0
20220126011514 55 50 2.0 8.0 0.00 0.00 0.00 80 1020.9
20220126010011 55 341 2.0 5.0 0.00 0.00 0.00 80 1020.7
20220126004514 55 360 1.0 7.0 0.00 0.01 0.00 81 1020.4
20220126003042 56 355 0.0 6.0 0.00 0.01 0.00 80 1020.5
20220126001517 56 279 0.0 5.0 0.00 0.01 0.00 80 1020.1
20220126000035 56 355 3.0 8.0 0.00 0.01 0.00 80 1020.0
20220125234512 56 27 0.0 6.0 0.00 0.04 0.00 79 1019.7
20220125233012 57 344 1.0 7.0 0.00 0.04 0.00 79 1019.6
20220125231521 57 77 1.0 9.0 0.00 0.04 0.00 78 1019.2
20220125230013 57 5 2.0 8.0 0.00 0.04 0.00 79 1018.9
20220125224519 58 306 3.0 10.0 0.00 0.04 0.00 78 1018.8
20220125223047 58 340 2.0 6.0 0.00 0.04 0.00 78 1018.7
20220125221520 58 328 2.0 10.0 0.00 0.04 0.00 77 1018.7
20220125220025 59 290 2.0 7.0 0.00 0.04 0.00 76 1018.5
20220125214517 59 84 1.0 9.0 0.00 0.04 0.00 75 1018.1
20220125213022 59 325 2.0 8.0 0.00 0.04 0.00 77 1018.0
20220125211512 59 341 3.0 6.0 0.00 0.04 0.00 76 1017.7
20220125210033 58 315 2.0 10.0 0.00 0.04 0.00 77 1017.8
20220125204524 58 5 1.0 5.0 0.00 0.04 0.00 78 1017.8
20220125203014 59 13 1.0 5.0 0.00 0.04 0.00 77 1017.8
20220125201528 59 11 2.0 7.0 0.00 0.04 0.00 76 1017.7
20220125200015 58 0 1.0 9.0 0.00 0.04 0.00 78 1017.8
20220125194512 58 30 2.0 7.0 0.00 0.04 0.00 77 1017.7
20220125193018 58 344 2.0 10.0 0.00 0.04 0.00 77 1017.9
20220125191511 58 355 2.0 8.0 0.00 0.04 0.00 78 1017.9
20220125190010 57 212 1.0 8.0 0.00 0.04 0.00 81 1018.3
20220125184525 56 306 2.0 7.0 0.00 0.04 0.00 82 1018.6
20220125183025 55 31 3.0 11.0 0.00 0.04 0.00 82 1018.9
20220125181530 56 0 2.0 10.0 0.00 0.04 0.00 82 1018.8
20220125180015 56 43 1.0 6.0 0.00 0.04 0.00 82 1018.8
20220125174510 56 9 1.0 9.0 0.00 0.07 0.00 83 1019.0
20220125173041 56 63 1.0 7.0 0.00 0.07 0.00 84 1019.0
20220125171513 55 346 1.0 7.0 0.00 0.07 0.00 85 1019.0
20220125170035 55 321 2.0 7.0 0.00 0.07 0.00 85 1019.2
20220125164517 54 0 2.0 7.0 0.00 0.26 0.00 86 1019.3
20220125163035 54 355 3.0 8.0 0.00 0.26 0.00 86 1019.3
20220125161540 53 360 2.0 6.0 0.00 0.26 0.00 88 1019.2
20220125160017 53 325 2.0 7.0 0.00 0.26 0.00 88 1019.1
20220125154537 52 279 1.0 6.0 0.00 0.33 0.00 89 1018.6
20220125153010 52 347 2.0 8.0 0.00 0.33 0.00 90 1018.4
20220125151516 51 318 1.0 7.0 0.00 0.33 0.00 91 1018.6
20220125150047 50 311 1.0 5.0 0.00 0.33 0.00 92 1018.3
20220125144542 50 302 1.0 5.0 0.00 0.35 0.00 92 1017.9
20220125143019 49 325 2.0 8.0 0.00 0.35 0.00 92 1018.0
20220125141533 49 299 2.0 7.0 0.00 0.35 0.00 92 1017.7
20220125140040 49 271 2.0 6.0 0.00 0.35 0.00 92 1017.7
20220125134511 49 260 2.0 4.0 0.00 0.35 0.00 91 1017.6
20220125133021 49 300 2.0 6.0 0.00 0.35 0.00 91 1017.1
20220125131519 49 306 3.0 7.0 0.00 0.35 0.00 91 1016.5
20220125130025 49 310 1.0 6.0 0.00 0.35 0.00 91 1016.2
20220125124551 49 330 1.0 9.0 0.00 0.38 0.00 92 1016.1
20220125123012 49 306 2.0 5.0 0.00 0.38 0.00 92 1016.1
20220125121606 49 0 0.0 8.0 0.00 0.38 0.00 92 1015.9
20220125120041 49 317 3.0 8.0 0.00 0.38 0.00 92 1015.5
20220125114540 49 0 0.0 3.0 0.00 0.38 0.00 92 1015.5
20220125113010 48 306 1.0 3.0 0.00 0.38 0.00 92 1015.0
20220125111542 48 316 0.0 2.0 0.00 0.38 0.00 92 1014.9
20220125110036 48 346 2.0 9.0 0.00 0.38 0.00 92 1014.4
20220125104510 48 0 0.0 7.0 0.00 0.38 0.00 92 1014.2
20220125103036 48 338 2.0 5.0 0.00 0.38 0.00 93 1014.2
20220125101510 48 340 1.0 5.0 0.00 0.38 0.00 92 1014.1
20220125100049 48 310 1.0 4.0 0.00 0.38 0.00 92 1014.0
20220125094516 48 314 0.0 3.0 0.00 0.38 0.00 92 1014.0
20220125093028 48 308 1.0 3.0 0.00 0.38 0.00 92 1014.0
20220125091511 48 0 0.0 3.0 0.00 0.38 0.00 93 1013.9
20220125090011 48 0 0.0 3.0 0.00 0.38 0.00 92 1014.0
20220125084532 48 0 0.0 3.0 0.00 0.38 0.00 92 1014.1
20220125083022 48 0 1.0 3.0 0.00 0.38 0.00 92 1014.1
20220125081521 48 342 0.0 3.0 0.00 0.38 0.00 92 1014.0
20220125080025 48 0 0.0 1.0 0.00 0.38 0.00 92 1013.9
20220125074510 48 0 0.0 2.0 0.00 0.38 0.00 92 1013.7
20220125073024 48 74 0.0 2.0 0.00 0.38 0.00 91 1013.6
20220125071520 48 40 1.0 3.0 0.00 0.38 0.00 91 1013.6
20220125070010 48 0 1.0 4.0 0.00 0.38 0.00 91 1013.4
20220125064539 48 0 1.0 5.0 0.00 0.38 0.00 91 1013.2
20220125063013 48 0 1.0 6.0 0.00 0.38 0.00 91 1013.2
20220125061530 48 0 1.0 5.0 0.00 0.38 0.00 91 1013.3
20220125060036 48 57 1.0 3.0 0.00 0.38 0.00 91 1013.1
20220125054523 48 30 0.0 4.0 0.00 0.38 0.38 91 1013.2
20220125053008 48 314 1.0 3.0 0.00 0.38 0.38 91 1013.6
20220125051514 48 0 0.0 2.0 0.00 0.38 0.38 92 1013.6